Tiempo atmosférico en la estación meteorológica de El Campillo, Huelva (415 m.)



Fecha
DESCASC
Temp. máxima en grados centígrados (hora)
DESCASC
Temp. mínima en grados centígrados (hora)
DESCASC
Temp. media en grados centígrados
DESCASC
Racha de viento máxima en m/sg (hora)
DESCASC
Velocidad máxima media en intervalos de 10 minutos(hora)
DESCASC
Precipitaciones diarias en mm
DESCASC
Precipitaciones de 00:00 a 06:00 en mm
DESCASC
Precipitaciones de 06:00 a 12:00 en mm
DESCASC
Precipitaciones de 12:00 a 18:00 en mm
DESCASC
Precipitaciones de 18:00 a 24:00 en mm
DESCASC
22-04-2019 22.4 (16:40) 10.7 (05:30) 16.5 10.56 (14:30) 6.11 (18:50) 0 0 0 0 0
21-04-2019 20.5 (17:30) 9.3 (07:40) 14.9 11.67 (12:20) 7.5 (13:10) 0 0 0 0 0
20-04-2019 17.4 (16:20) 9.2 (07:00) 13.3 11.67 (18:20) 7.5 (18:20) 0 0 0 0 0
19-04-2019 16.6 (14:10) 7.7 (04:00) 12.2 8.61 (14:40) 5.83 (14:50) 8.2 0 0 8 0.2
18-04-2019 15.8 (13:10) 8.5 (00:00) 12.2 9.72 (16:20) 5.83 (16:20) 3.6 0.2 1.2 0.2 2
17-04-2019 17.8 (14:40) 10.1 (00:00) 13.9 14.72 (16:00) 9.72 (14:50) 1.2 0 0 0.6 0.6
16-04-2019 22.1 (17:30) 9.1 (00:00) 15.6 8.33 (19:20) 5 (20:10) 0 0 0 0 0
15-04-2019 22.4 (15:40) 11.6 (00:00) 17 9.72 (15:40) 4.44 (15:50) 0 0 0 0 0
14-04-2019 25 (17:50) 11.6 (00:00) 18.3 6.39 (19:50) 4.44 (19:50) 0 0 0 0 0
13-04-2019 23.5 (16:20) 9.5 (00:00) 16.5 8.33 (18:30) 4.72 (18:30) 0 0 0 0 0
12-04-2019 22 (17:10) 9.8 (00:00) 15.9 7.5 (01:40) 5.28 (01:40) 0 0 0 0 0
11-04-2019 20 (16:20) 6.4 (00:00) 13.2 9.72 (00:50) 7.22 (01:40) 0 0 0 0 0
10-04-2019 17.6 (16:20) 6.8 (00:00) 12.2 12.22 (18:30) 8.61 (18:00) 0 0 0 0 0
09-04-2019 16.4 (17:30) 7.5 (00:00) 11.9 11.11 (16:20) 6.39 (19:50) 0.6 0 0 0.4 0.2
08-04-2019 15.9 (17:10) 8.8 (00:00) 12.3 10.83 (10:30) 5.28 (10:10) 7.2 0.8 6.4 0 0
07-04-2019 12.8 (19:20) 7.1 (00:00) 10 7.78 (11:40) 4.44 (11:40) 6.6 0.2 0 2.2 4.2
06-04-2019 12.5 (19:20) 4.9 (00:00) 8.7 11.39 (20:00) 5.28 (20:00) 5.6 0 0.4 4.8 0.4
05-04-2019 13.3 (16:30) 5.9 (00:00) 9.6 12.22 (13:30) 6.94 (20:20) 6.6 4.4 1.4 0.2 0.6
04-04-2019 17.8 (16:40) 3.7 (00:00) 10.7 9.44 (04:30) 6.94 (05:10) 0 0 0 0 0
03-04-2019 18.2 (16:20) 8.5 (00:00) 13.4 10.28 (19:00) 6.39 (18:40) 0 0 0 0 0
02-04-2019 19.8 (16:30) 8.5 (00:00) 14.1 5.28 (17:20) 2.78 (21:10) 0.2 0.2 0 0 0
01-04-2019 17.1 (14:30) 10 (00:00) 13.6 10.56 (14:30) 4.72 (18:00) 12 0 0 7.4 4.6
31-03-2019 17.9 (13:50) 9.9 (00:00) 13.9 11.39 (14:40) 5 (14:40) 23 0 0 23 0
30-03-2019 21.8 (15:30) 8.6 (00:00) 15.2 9.72 (19:20) 6.11 (19:20) 0 0 0 0 0
29-03-2019 21 (16:10) 7.7 (00:00) 14.3 8.33 (15:50) 3.89 (01:50) 0 0 0 0 0
28-03-2019 19.6 (15:50) 8.4 (00:00) 14 10.56 (13:30) 5 (12:50) 0 0 0 0 0
27-03-2019 20.3 (16:30) 9.5 (00:00) 14.9 9.72 (09:00) 4.17 (10:20) 0 0 0 0 0
26-03-2019 23.9 (17:10) 12.8 (00:00) 18.3 9.72 (12:20) 4.72 (11:40) 0 0 0 0 0
25-03-2019 22.7 (16:40) 10.8 (00:00) 16.8 10.28 (14:10) 5 (14:00) 0 0 0 0 0

Gráficas

Temp. máximas Temp. mínimas Temp. medias Precipitaciones Rachas de viento máximas Velocidades máximas media en intervalos de 10 minutos

Datos horarios

Fecha y hora oficial Temperatura (ºC) Velocidad del viento (km/h) Dirección del viento Racha (km/h) Dirección de racha Precipitación (mm) Presión (hPa) Tendencia (hPa) Humedad (%)
2019-04-23 23:00:00 7.1 10 Sudoeste 15 Sudoeste 0.2 -- -- 92
2019-04-23 22:00:00 7.5 8 Sudoeste 13 Sudoeste 0 -- -- 91
2019-04-23 21:00:00 7.9 4 Sudoeste 36 Sur 4.4 -- -- 90
2019-04-23 20:00:00 9.8 5 Oeste 36 Sudoeste 0.2 -- -- 74
2019-04-23 19:00:00 11.8 14 Sudoeste 32 Oeste 0 -- -- 61
2019-04-23 18:00:00 12.7 14 Oeste 34 Oeste 0 -- -- 57
2019-04-23 17:00:00 11.3 11 Noroeste 39 Noroeste 0 -- -- 63
2019-04-23 16:00:00 11.6 16 Norte 47 Noroeste 0 -- -- 68
2019-04-23 15:00:00 12.5 17 Oeste 38 Oeste 0 -- -- 58
2019-04-23 14:00:00 10.6 14 Noroeste 40 Noroeste 0 -- -- 72
2019-04-23 13:00:00 9.7 21 Oeste 46 Noroeste 0 -- -- 76
2019-04-23 12:00:00 10.7 12 Oeste 28 Noroeste 0.4 -- -- 80
2019-04-23 11:00:00 8.7 9 Noroeste 22 Oeste 0.2 -- -- 86
2019-04-23 10:00:00 8.5 9 Oeste 21 Oeste 0 -- -- 88
2019-04-23 09:00:00 7.7 9 Oeste 23 Oeste 0 -- -- 96
2019-04-23 08:00:00 7.2 8 Noroeste 23 Noroeste 0.2 -- -- 93
2019-04-23 07:00:00 7.7 12 Noroeste 24 Noroeste 0 -- -- 94
2019-04-23 06:00:00 8.1 9 Oeste 24 Noroeste 0.2 -- -- 93
2019-04-23 05:00:00 8.5 16 Noroeste 44 Noroeste 1.4 -- -- 94
2019-04-23 04:00:00 10.9 16 Sudoeste 37 Sudoeste 2 -- -- 95
2019-04-23 03:00:00 11.1 18 Sur 29 Sudoeste 0.2 -- -- 94
2019-04-23 02:00:00 11.4 15 Sudoeste 29 Sudoeste 0.4 -- -- 91
2019-04-23 01:00:00 12.5 8 Sudoeste 22 Oeste 0 -- -- 81
2019-04-23 00:00:00 12.9 16 Oeste 32 Oeste 0 -- -- 77
2019-04-22 23:00:00 13.3 8 Oeste 19 Sudoeste 0 -- -- 81
2019-04-22 22:00:00 14.4 13 Sur 26 Sudoeste 0 -- -- 77
2019-04-22 21:00:00 16.1 16 Sur 27 Sur 0 -- -- 68
2019-04-22 20:00:00 18.1 6 Sudoeste 32 Sudoeste 0 -- -- 48
2019-04-22 19:00:00 18.9 21 Sur 37 Sur 0 -- -- 48
2019-04-22 18:00:00 20.5 17 Sudoeste 34 Oeste 0 -- -- 46
2019-04-22 17:00:00 22.3 14 Oeste 36 Oeste 0 -- -- 34
2019-04-22 16:00:00 21.7 15 Oeste 33 Sudoeste 0 -- -- 33
2019-04-22 15:00:00 21.6 16 Noroeste 38 Oeste 0 -- -- 34
2019-04-22 14:00:00 20.2 12 Oeste 25 Sudoeste 0 -- -- 40
2019-04-22 13:00:00 19.2 12 Noroeste 19 Noroeste 0 -- -- 52
2019-04-22 12:00:00 17.7 6 Noroeste 14 Oeste 0 -- -- 56
2019-04-22 11:00:00 15.7 8 Sudoeste 17 Sur 0 -- -- 64
2019-04-22 10:00:00 13.6 5 Sur 9 Sur 0 -- -- 72
2019-04-22 09:00:00 11.4 2 Sur 5 Sudeste 0 -- -- 80
2019-04-22 08:00:00 11.2 2 Sur 3 Sur 0 -- -- 78
2019-04-22 07:00:00 10.9 2 Nordeste -- -- 0 -- -- 78
2019-04-22 06:00:00 10.9 2 Nordeste 3 Nordeste 0 -- -- 77
2019-04-22 05:00:00 10.9 0 Calma 3 Norte 0 -- -- 73
2019-04-22 04:00:00 12.1 0 Calma 6 Oeste 0 -- -- 70
2019-04-22 03:00:00 12.6 0 Calma 5 Sur 0 -- -- 70
2019-04-22 02:00:00 13.2 4 Sur 8 Este 0 -- -- 61
2019-04-22 01:00:00 13.5 5 Este 9 Este 0 -- -- 58
2019-04-22 00:00:00 13.4 6 Este 9 Este 0 -- -- 59
2019-04-21 23:00:00 14.2 6 Este 10 Este 0 -- -- 57
2019-04-21 22:00:00 15.1 7 Nordeste 14 Nordeste 0 -- -- 56
2019-04-21 21:00:00 16 9 Nordeste 19 Nordeste 0 -- -- 51
2019-04-21 20:00:00 17 14 Nordeste 30 Nordeste 0 -- -- 48
2019-04-21 19:00:00 18.7 17 Nordeste 32 Norte 0 -- -- 44
2019-04-21 18:00:00 18.8 21 Nordeste 38 Norte 0 -- -- 43
2019-04-21 17:00:00 19.3 20 Norte 37 Norte 0 -- -- 42
2019-04-21 16:00:00 19.5 27 Nordeste 38 Nordeste 0 -- -- 44
2019-04-21 15:00:00 19.3 24 Norte 39 Norte 0 -- -- 45
2019-04-21 14:00:00 18 22 Norte 40 Nordeste 0 -- -- 47
2019-04-21 13:00:00 17.5 21 Norte 42 Nordeste 0 -- -- 48
2019-04-21 12:00:00 16.3 19 Nordeste 37 Nordeste 0 -- -- 52
2019-04-21 11:00:00 14.7 18 Nordeste 28 Nordeste 0 -- -- 58
2019-04-21 10:00:00 12.7 18 Nordeste 30 Nordeste 0 -- -- 65
2019-04-21 09:00:00 10.7 13 Norte 20 Norte 0 -- -- 74
2019-04-21 08:00:00 9.5 7 Nordeste 15 Norte 0 -- -- 80
2019-04-21 07:00:00 10 10 Norte 28 Norte 0 -- -- 78
2019-04-21 06:00:00 9.9 8 Norte 14 Norte 0 -- -- 79
2019-04-21 05:00:00 11.6 8 Nordeste 21 Este 0 -- -- 72
2019-04-21 04:00:00 12.3 7 Nordeste 18 Nordeste 0 -- -- 68
2019-04-21 03:00:00 12.1 8 Nordeste 30 Nordeste 0 -- -- 68
2019-04-21 02:00:00 12.4 11 Nordeste 26 Nordeste 0 -- -- 68
2019-04-21 01:00:00 12.7 13 Nordeste 30 Nordeste 0 -- -- 68
2019-04-21 00:00:00 12.6 15 Nordeste 28 Nordeste 0 -- -- 71
2019-04-20 23:00:00 12.8 13 Nordeste 37 Nordeste 0 -- -- 72
2019-04-20 22:00:00 12.8 18 Nordeste 39 Nordeste 0 -- -- 72
2019-04-20 21:00:00 13.5 20 Nordeste 35 Nordeste 0 -- -- 69
2019-04-20 20:00:00 14.8 23 Norte 39 Nordeste 0 -- -- 66
2019-04-20 19:00:00 16.5 24 Norte 42 Nordeste 0 -- -- 60
2019-04-20 18:00:00 16.7 15 Nordeste 38 Nordeste 0 -- -- 59
2019-04-20 17:00:00 16.9 23 Nordeste 39 Norte 0 -- -- 58
2019-04-20 16:00:00 16.6 18 Nordeste 33 Nordeste 0 -- -- 60
2019-04-20 15:00:00 16.1 19 Nordeste 29 Nordeste 0 -- -- 61
2019-04-20 14:00:00 15.4 17 Nordeste 33 Nordeste 0 -- -- 65
2019-04-20 13:00:00 14.4 17 Nordeste 37 Nordeste 0 -- -- 69
2019-04-20 12:00:00 13.1 14 Nordeste 29 Nordeste 0 -- -- 74
2019-04-20 11:00:00 12.3 11 Nordeste 26 Nordeste 0 -- -- 79
2019-04-20 10:00:00 11.5 12 Nordeste 23 Este 0 -- -- 78
2019-04-20 09:00:00 10.3 9 Nordeste 22 Nordeste 0 -- -- 82
2019-04-20 08:00:00 9.5 8 Norte 25 Norte 0 -- -- 84
2019-04-20 07:00:00 9.2 4 Norte 16 Norte 0 -- -- 88
2019-04-20 06:00:00 9.9 7 Nordeste 14 Norte 0 -- -- 85
2019-04-20 05:00:00 10.5 9 Nordeste 19 Nordeste 0 -- -- 83
2019-04-20 04:00:00 10.1 11 Nordeste 18 Nordeste 0 -- -- 86
2019-04-20 03:00:00 10.1 7 Nordeste 15 Nordeste 0 -- -- 85
2019-04-20 02:00:00 10.6 11 Nordeste 21 Norte 0 -- -- 83
2019-04-20 01:00:00 10.5 10 Nordeste 17 Nordeste 0 -- -- 84
2019-04-20 00:00:00 11 8 Nordeste 17 Nordeste 0 -- -- 86
2019-04-19 23:00:00 11.6 7 Este 10 Este 0.2 -- -- 90
2019-04-19 22:00:00 12 3 Norte 5 Norte 0 -- -- 84
2019-04-19 21:00:00 13.1 4 Noroeste 9 Noroeste 0 -- -- 80
2019-04-19 20:00:00 13.8 3 Noroeste 14 Oeste 0 -- -- 78
2019-04-19 19:00:00 14.5 8 Noroeste 16 Noroeste 0 -- -- 78
2019-04-19 18:00:00 13.2 11 Noroeste 19 Noroeste 0 -- -- 86
2019-04-19 17:00:00 12.1 5 Noroeste 14 Norte 0.4 -- -- 94
2019-04-19 16:00:00 11.1 4 Noroeste 25 Norte 5.2 -- -- 95
2019-04-19 15:00:00 11.2 18 Nordeste 31 Norte 2.2 -- -- 87
2019-04-19 14:00:00 16.5 4 Sudoeste 13 Norte 0 -- -- 58
2019-04-19 13:00:00 14 2 Noroeste 11 Oeste 0.2 -- -- 67
2019-04-19 12:00:00 13.3 4 Norte 9 Sur 0 -- -- 78
2019-04-19 11:00:00 11.3 3 Sur 8 Sur 0 -- -- 91
2019-04-19 10:00:00 10.4 4 Nordeste 9 Nordeste 0 -- -- 91
2019-04-19 09:00:00 8.7 4 Nordeste 10 Este 0 -- -- 93
2019-04-19 08:00:00 8.9 5 Nordeste 7 Norte 0 -- -- 95
2019-04-19 07:00:00 8.4 3 Norte 8 Norte 0 -- -- 95
2019-04-19 06:00:00 7.9 5 Norte 8 Norte 0 -- -- 94
2019-04-19 05:00:00 7.9 4 Norte 7 Norte 0 -- -- 94
2019-04-19 04:00:00 7.7 4 Norte 8 Norte 0 -- -- 93
2019-04-19 03:00:00 8 2 Norte 5 Norte 0 -- -- 93
2019-04-19 02:00:00 8 4 Norte 10 Noroeste 0 -- -- 93
2019-04-19 01:00:00 8 7 Norte 10 Norte 0 -- -- 94
2019-04-19 00:00:00 8.5 6 Norte 9 Norte 0 -- -- 93
2019-04-18 23:00:00 8.6 4 Norte 9 Noroeste 0 -- -- 91
2019-04-18 22:00:00 9.3 2 Noroeste 6 Oeste 0 -- -- 89
2019-04-18 21:00:00 10 3 Norte 9 Norte 0 -- -- 88
2019-04-18 20:00:00 10.4 8 Norte 16 Noroeste 0.4 -- -- 90
2019-04-18 19:00:00 10 15 Nordeste 21 Noroeste 1.6 -- -- 87
2019-04-18 18:00:00 10.4 7 Noroeste 28 Sudoeste 0.2 -- -- 90
2019-04-18 17:00:00 11.6 13 Sudoeste 35 Sudoeste 0 -- -- 79
2019-04-18 16:00:00 12.9 13 Sudoeste 21 Sudoeste 0 -- -- 78
2019-04-18 15:00:00 13.2 12 Sur 20 Sur 0 -- -- 79
2019-04-18 14:00:00 14.3 8 Oeste 21 Sur 0 -- -- 72
2019-04-18 13:00:00 15.3 8 Sudoeste 17 Sur 0 -- -- 70
2019-04-18 12:00:00 12.9 4 Sur 13 Sur 0 -- -- 83
2019-04-18 11:00:00 12.8 6 Sur 13 Sur 0 -- -- 81
2019-04-18 10:00:00 10.1 7 Este 14 Este 0.2 -- -- 94
2019-04-18 09:00:00 10.4 3 Sudeste 11 Sur 0.8 -- -- 97
2019-04-18 08:00:00 10.3 3 Sudeste 8 Sur 0.2 -- -- 96
2019-04-18 07:00:00 10.6 0 Calma 8 Este 0 -- -- 95
2019-04-18 06:00:00 10.6 4 Sudeste 9 Sudeste 0.2 -- -- 95
2019-04-18 05:00:00 10.7 3 Sudeste 9 Sudeste 0 -- -- 94
2019-04-18 04:00:00 10.7 0 Calma 4 Sudeste 0 -- -- 94
2019-04-18 03:00:00 10.4 0 Calma 6 Sur 0 -- -- 94
2019-04-18 02:00:00 10.4 4 Sur 8 Sur 0 -- -- 92
2019-04-18 01:00:00 10.7 4 Sur 9 Sur 0 -- -- 91
2019-04-18 00:00:00 10.5 4 Sudeste 10 Sur 0 -- -- 92
2019-04-17 23:00:00 10.8 3 Sudoeste 13 Sudoeste 0 -- -- 91
2019-04-17 22:00:00 11.1 9 Sur 15 Sur 0 -- -- 90
2019-04-17 21:00:00 11.2 4 Sudeste 13 Sudeste 0.4 -- -- 91
2019-04-17 20:00:00 11.7 6 Sudeste 18 Sur 0.2 -- -- 90
2019-04-17 19:00:00 12 12 Sur 20 Sur 0 -- -- 90
2019-04-17 18:00:00 11.9 9 Sur 23 Sudoeste 0.2 -- -- 90
2019-04-17 17:00:00 12.1 17 Sudoeste 46 Sur 0.4 -- -- 88
2019-04-17 16:00:00 16.2 32 Sur 53 Sur 0 -- -- 71
2019-04-17 15:00:00 17.1 31 Sur 48 Sur 0 -- -- 63
2019-04-17 14:00:00 17.4 28 Sur 46 Sur 0 -- -- 63
2019-04-17 13:00:00 16.6 17 Sur 41 Sur 0 -- -- 70
2019-04-17 12:00:00 16.2 22 Sur 44 Sur 0 -- -- 70
2019-04-17 11:00:00 14.8 13 Sur 28 Sur 0 -- -- 72
2019-04-17 10:00:00 13.4 9 Sur 15 Sur 0 -- -- 75
2019-04-17 09:00:00 11.6 4 Sur 9 Sur 0 -- -- 83
2019-04-17 08:00:00 11.3 4 Sur 12 Sur 0 -- -- 82
2019-04-17 07:00:00 11.2 3 Sur 9 Sudeste 0 -- -- 81
2019-04-17 06:00:00 10.8 3 Sudeste 9 Sur 0 -- -- 81
2019-04-17 05:00:00 10.3 2 Sudeste 8 Sudeste 0 -- -- 80
2019-04-17 04:00:00 10.8 4 Sudeste 12 Sudeste 0 -- -- 77
2019-04-17 03:00:00 10.2 3 Sur 6 Sur 0 -- -- 76
2019-04-17 02:00:00 11.5 6 Sur 9 Sur 0 -- -- 68
2019-04-17 01:00:00 11.9 3 Sudoeste 9 Sur 0 -- -- 69
2019-04-17 00:00:00 13.6 5 Sur 17 Sur 0 -- -- 63
2019-04-16 23:00:00 15 10 Sur 17 Sur 0 -- -- 56
2019-04-16 22:00:00 16.3 10 Sur 15 Sur 0 -- -- 52
2019-04-16 21:00:00 17.8 11 Sur 27 Sur 0 -- -- 54
2019-04-16 20:00:00 20.7 15 Sur 30 Sudeste 0 -- -- 33
2019-04-16 19:00:00 21.8 13 Sur 29 Sur 0 -- -- 35
2019-04-16 18:00:00 22.1 15 Sur 27 Sur 0 -- -- 35
2019-04-16 17:00:00 22 11 Sur 25 Sur 0 -- -- 34
2019-04-16 16:00:00 21.9 10 Sudeste 25 Sudeste 0 -- -- 39
2019-04-16 15:00:00 21 11 Sur 29 Sur 0 -- -- 40
2019-04-16 14:00:00 19.9 14 Sur 24 Sudeste 0 -- -- 44
2019-04-16 13:00:00 18.8 9 Sudeste 26 Sur 0 -- -- 46
2019-04-16 12:00:00 17.5 10 Sudeste 26 Sudeste 0 -- -- 56
2019-04-16 11:00:00 15.7 10 Sur 21 Sudeste 0 -- -- 65
2019-04-16 10:00:00 14.2 7 Este 19 Este 0 -- -- 71
2019-04-16 09:00:00 11.8 3 Este 14 Sudeste 0 -- -- 81
2019-04-16 08:00:00 10.3 9 Este 14 Este 0 -- -- 85
2019-04-16 07:00:00 10.8 10 Este 14 Este 0 -- -- 82
2019-04-16 06:00:00 9.7 5 Este 10 Nordeste 0 -- -- 88
2019-04-16 05:00:00 9.3 5 Nordeste 8 Norte 0 -- -- 86
2019-04-16 04:00:00 9.7 7 Norte 13 Norte 0 -- -- 87
2019-04-16 03:00:00 9.7 6 Norte 17 Noroeste 0 -- -- 87
2019-04-16 02:00:00 10.1 5 Noroeste 10 Noroeste 0 -- -- 83
2019-04-16 01:00:00 10.9 6 Norte 12 Noroeste 0 -- -- 77
2019-04-16 00:00:00 11.6 8 Norte 15 Noroeste 0 -- -- 74
2019-04-15 23:00:00 12.8 10 Noroeste 16 Noroeste 0 -- -- 70
2019-04-15 22:00:00 14.5 7 Noroeste 19 Oeste 0 -- -- 62
2019-04-15 21:00:00 16.4 10 Noroeste 25 Oeste 0 -- -- 56
2019-04-15 20:00:00 18.9 12 Noroeste 31 Noroeste 0 -- -- 48
2019-04-15 19:00:00 18.8 16 Noroeste 28 Noroeste 0 -- -- 56
2019-04-15 18:00:00 19 12 Oeste 28 Noroeste 0 -- -- 57
2019-04-15 17:00:00 19.4 14 Noroeste 29 Oeste 0 -- -- 56
2019-04-15 16:00:00 22.2 15 Oeste 35 Oeste 0 -- -- 44
2019-04-15 15:00:00 21.9 13 Noroeste 35 Oeste 0 -- -- 37
2019-04-15 14:00:00 21.9 10 Oeste 24 Noroeste 0 -- -- 36
2019-04-15 13:00:00 20.7 11 Oeste 24 Noroeste 0 -- -- 47
2019-04-15 12:00:00 19.7 13 Noroeste 24 Noroeste 0 -- -- 60
2019-04-15 11:00:00 18.6 9 Noroeste 17 Noroeste 0 -- -- 59
2019-04-15 10:00:00 16.8 5 Oeste 12 Sudoeste 0 -- -- 65
2019-04-15 09:00:00 14.2 8 Sur 17 Sur 0 -- -- 70
2019-04-15 08:00:00 13.3 8 Sur 12 Sur 0 -- -- 73
2019-04-15 07:00:00 13.5 2 Sudoeste 9 Sudeste 0 -- -- 74
2019-04-15 06:00:00 14.7 5 Sudeste 10 Sudeste 0 -- -- 67
2019-04-15 05:00:00 14.9 4 Sudeste 7 Sur 0 -- -- 71
2019-04-15 04:00:00 14.9 0 Calma 8 Este 0 -- -- 71
2019-04-15 03:00:00 16.1 3 Sudeste 6 Este 0 -- -- 67
2019-04-15 02:00:00 16.8 2 Este 5 Este 0 -- -- 64
2019-04-15 01:00:00 16.4 3 Nordeste 4 Nordeste 0 -- -- 65
2019-04-15 00:00:00 17.1 2 Nordeste 3 Nordeste 0 -- -- 62
2019-04-14 23:00:00 17.6 0 Calma 4 Sur 0 -- -- 62
2019-04-14 22:00:00 18.5 0 Calma 6 Sur 0 -- -- 59
2019-04-14 21:00:00 19.8 5 Sudoeste 19 Sur 0 -- -- 57
2019-04-14 20:00:00 21.7 12 Sudoeste 23 Sudoeste 0 -- -- 52
2019-04-14 19:00:00 24.3 6 Oeste 15 Sur 0 -- -- 43
2019-04-14 18:00:00 24.8 12 Sudoeste 18 Sudoeste 0 -- -- 43
2019-04-14 17:00:00 24.3 6 Sudoeste 20 Sudoeste 0 -- -- 45
2019-04-14 16:00:00 24 8 Sudoeste 17 Sudoeste 0 -- -- 46
2019-04-14 15:00:00 22.7 4 Noroeste 16 Noroeste 0 -- -- 50
2019-04-14 14:00:00 22.4 6 Noroeste 20 Sudoeste 0 -- -- 53
2019-04-14 13:00:00 21.4 5 Este 15 Sudoeste 0 -- -- 55
2019-04-14 12:00:00 19.7 6 Sudoeste 14 Sur 0 -- -- 59
2019-04-14 11:00:00 17.6 5 Sur 13 Sudeste 0 -- -- 67
2019-04-14 10:00:00 15.9 6 Sur 10 Sur 0 -- -- 73
2019-04-14 09:00:00 13 3 Este 10 Sudeste 0 -- -- 87
2019-04-14 08:00:00 11.8 5 Sudeste 9 Este 0 -- -- 88
2019-04-14 07:00:00 11.8 2 Norte 7 Nordeste 0 -- -- 89
2019-04-14 06:00:00 12.4 6 Norte 12 Norte 0 -- -- 87
2019-04-14 05:00:00 12.6 8 Norte 10 Norte 0 -- -- 86
2019-04-14 04:00:00 12.5 9 Norte 13 Norte 0 -- -- 84
2019-04-14 03:00:00 12.4 6 Norte 12 Norte 0 -- -- 77
2019-04-14 02:00:00 12.8 7 Noroeste 13 Norte 0 -- -- 68
2019-04-14 01:00:00 12.8 10 Norte 12 Norte 0 -- -- 62
2019-04-14 00:00:00 13.5 5 Norte 9 Norte 0 -- -- 58
2019-04-13 23:00:00 14.8 3 Oeste 8 Noroeste 0 -- -- 53
2019-04-13 22:00:00 15.4 3 Oeste 17 Sudoeste 0 -- -- 54
2019-04-13 21:00:00 17.2 9 Sudoeste 27 Sudoeste 0 -- -- 50
2019-04-13 20:00:00 20.3 13 Sudoeste 27 Sudoeste 0 -- -- 42
2019-04-13 19:00:00 21.7 15 Sudoeste 30 Sudoeste 0 -- -- 40
2019-04-13 18:00:00 23 12 Oeste 27 Sudoeste 0 -- -- 33
2019-04-13 17:00:00 23.3 10 Oeste 22 Oeste 0 -- -- 32
2019-04-13 16:00:00 23.1 8 Noroeste 19 Noroeste 0 -- -- 30
2019-04-13 15:00:00 22.2 8 Noroeste 17 Noroeste 0 -- -- 31
2019-04-13 14:00:00 21.6 9 Oeste 20 Sudoeste 0 -- -- 29
2019-04-13 13:00:00 20.5 5 Oeste 15 Oeste 0 -- -- 34
2019-04-13 12:00:00 19.5 4 Noroeste 15 Norte 0 -- -- 35
2019-04-13 11:00:00 18 6 Norte 15 Norte 0 -- -- 39
2019-04-13 10:00:00 16.1 8 Norte 13 Norte 0 -- -- 51
2019-04-13 09:00:00 12.7 8 Norte 11 Norte 0 -- -- 62
2019-04-13 08:00:00 10.5 8 Norte 10 Norte 0 -- -- 68
2019-04-13 07:00:00 9.8 5 Norte 9 Norte 0 -- -- 72
2019-04-13 06:00:00 9.7 7 Noroeste 11 Noroeste 0 -- -- 69
2019-04-13 05:00:00 9.7 5 Norte 10 Norte 0 -- -- 67
2019-04-13 04:00:00 10.3 7 Norte 11 Noroeste 0 -- -- 60
2019-04-13 03:00:00 10.6 4 Norte 9 Norte 0 -- -- 57
2019-04-13 02:00:00 11.5 4 Norte 10 Noroeste 0 -- -- 56
2019-04-13 01:00:00 11.6 3 Norte 7 Norte 0 -- -- 53
2019-04-13 00:00:00 13 0 Calma 12 Norte 0 -- -- 45
2019-04-12 23:00:00 12.9 10 Norte 14 Norte 0 -- -- 45
2019-04-12 22:00:00 14.5 10 Norte 21 Noroeste 0 -- -- 42
2019-04-12 21:00:00 16.7 14 Noroeste 25 Norte 0 -- -- 36
2019-04-12 20:00:00 19.3 17 Noroeste 25 Noroeste 0 -- -- 32
2019-04-12 19:00:00 20.7 16 Norte 24 Noroeste 0 -- -- 30
2019-04-12 18:00:00 21.9 8 Noroeste 20 Oeste 0 -- -- 29
2019-04-12 17:00:00 21.5 10 Norte 23 Oeste 0 -- -- 31
2019-04-12 16:00:00 20.8 6 Sur 21 Noroeste 0 -- -- 31
2019-04-12 15:00:00 20.8 6 Noroeste 22 Noroeste 0 -- -- 33
2019-04-12 14:00:00 20.2 10 Norte 26 Norte 0 -- -- 31
2019-04-12 13:00:00 19.4 6 Nordeste 18 Norte 0 -- -- 31
2019-04-12 12:00:00 18.3 9 Norte 18 Noroeste 0 -- -- 33
2019-04-12 11:00:00 17.6 9 Norte 14 Norte 0 -- -- 35
2019-04-12 10:00:00 15.2 2 Norte 8 Nordeste 0 -- -- 48
2019-04-12 09:00:00 11.5 5 Nordeste 7 Nordeste 0 -- -- 55
2019-04-12 08:00:00 10 5 Norte 6 Nordeste 0 -- -- 58
2019-04-12 07:00:00 10.4 6 Nordeste 13 Nordeste 0 -- -- 60
2019-04-12 06:00:00 10.8 10 Nordeste 14 Norte 0 -- -- 60
2019-04-12 05:00:00 10.5 12 Norte 18 Norte 0 -- -- 66
2019-04-12 04:00:00 10.6 14 Norte 18 Norte 0 -- -- 67
2019-04-12 03:00:00 10.6 14 Norte 17 Norte 0 -- -- 66
2019-04-12 02:00:00 11.4 15 Norte 27 Norte 0 -- -- 62
2019-04-12 01:00:00 10.8 12 Norte 21 Norte 0 -- -- 64
2019-04-12 00:00:00 11.8 15 Norte 21 Norte 0 -- -- 61
2019-04-11 23:00:00 11.6 11 Norte 16 Noroeste 0 -- -- 61
2019-04-11 22:00:00 13.3 11 Noroeste 18 Noroeste 0 -- -- 54
2019-04-11 21:00:00 14.9 13 Norte 21 Noroeste 0 -- -- 46
2019-04-11 20:00:00 16.6 17 Norte 32 Noroeste 0 -- -- 40
2019-04-11 19:00:00 19 15 Norte 28 Norte 0 -- -- 37
2019-04-11 18:00:00 19.3 16 Noroeste 28 Norte 0 -- -- 37
2019-04-11 17:00:00 18.6 12 Norte 26 Norte 0 -- -- 39
2019-04-11 16:00:00 19 9 Norte 23 Noroeste 0 -- -- 37
2019-04-11 15:00:00 19.2 13 Norte 25 Norte 0 -- -- 37
2019-04-11 14:00:00 18.6 11 Noroeste 25 Norte 0 -- -- 41
2019-04-11 13:00:00 16.6 9 Noroeste 20 Norte 0 -- -- 49
2019-04-11 12:00:00 15.6 8 Noroeste 14 Noroeste 0 -- -- 57
2019-04-11 11:00:00 14 10 Norte 19 Norte 0 -- -- 61
2019-04-11 10:00:00 11.1 15 Norte 22 Norte 0 -- -- 73
2019-04-11 09:00:00 8.5 12 Norte 18 Norte 0 -- -- 83
2019-04-11 08:00:00 6.7 7 Norte 17 Norte 0 -- -- 87
2019-04-11 07:00:00 6.4 11 Norte 14 Norte 0 -- -- 87
2019-04-11 06:00:00 7.2 7 Norte 18 Norte 0 -- -- 85
2019-04-11 05:00:00 7.4 15 Norte 18 Norte 0 -- -- 86
2019-04-11 04:00:00 8.4 6 Noroeste 26 Norte 0 -- -- 81
2019-04-11 03:00:00 8.8 23 Norte 35 Norte 0 -- -- 80
2019-04-11 02:00:00 9.8 23 Norte 35 Norte 0 -- -- 74
2019-04-11 01:00:00 10.7 22 Norte 35 Norte 0 -- -- 68
2019-04-11 00:00:00 10.9 18 Norte 23 Norte 0 -- -- 63
2019-04-10 23:00:00 11.8 13 Noroeste 23 Noroeste 0 -- -- 57
2019-04-10 22:00:00 12.1 9 Noroeste 31 Noroeste 0 -- -- 57
2019-04-10 21:00:00 13.9 15 Noroeste 28 Noroeste 0 -- -- 51
2019-04-10 20:00:00 15.7 16 Noroeste 36 Norte 0 -- -- 47
2019-04-10 19:00:00 16.4 24 Norte 44 Noroeste 0 -- -- 43
2019-04-10 18:00:00 16.8 31 Norte 44 Norte 0 -- -- 41
2019-04-10 17:00:00 17.5 20 Noroeste 40 Noroeste 0 -- -- 45
2019-04-10 16:00:00 17 19 Noroeste 41 Noroeste 0 -- -- 44
2019-04-10 15:00:00 16.7 17 Noroeste 35 Noroeste 0 -- -- 45
2019-04-10 14:00:00 15.9 22 Norte 38 Noroeste 0 -- -- 48
2019-04-10 13:00:00 14.9 18 Noroeste 32 Norte 0 -- -- 51
2019-04-10 12:00:00 13.1 14 Norte 36 Norte 0 -- -- 62
2019-04-10 11:00:00 11.4 22 Noroeste 38 Noroeste 0 -- -- 68
2019-04-10 10:00:00 9.8 18 Norte 27 Norte 0 -- -- 81
2019-04-10 09:00:00 8 15 Norte 22 Noroeste 0 -- -- 89
2019-04-10 08:00:00 6.8 13 Norte 23 Noroeste 0 -- -- 91
2019-04-10 07:00:00 7.2 18 Norte 24 Norte 0 -- -- 91
2019-04-10 06:00:00 7.4 14 Norte 23 Noroeste 0 -- -- 89
2019-04-10 05:00:00 7.6 13 Norte 22 Noroeste 0 -- -- 90
2019-04-10 04:00:00 7.6 12 Noroeste 20 Noroeste 0 -- -- 90
2019-04-10 03:00:00 7.8 13 Norte 21 Norte 0 -- -- 89
2019-04-10 02:00:00 7.9 10 Noroeste 18 Noroeste 0 -- -- 91
2019-04-10 01:00:00 8.5 8 Noroeste 15 Noroeste 0 -- -- 90
2019-04-10 00:00:00 9.2 8 Noroeste 20 Noroeste 0 -- -- 87
2019-04-09 23:00:00 9.8 9 Noroeste 25 Noroeste 0 -- -- 83
2019-04-09 22:00:00 10.2 13 Noroeste 26 Noroeste 0 -- -- 80
2019-04-09 21:00:00 11.1 11 Noroeste 25 Noroeste 0 -- -- 78
2019-04-09 20:00:00 11.9 12 Noroeste 33 Noroeste 0.2 -- -- 80
2019-04-09 19:00:00 14.5 13 Noroeste 31 Oeste 0 -- -- 60
2019-04-09 18:00:00 13.7 19 Noroeste 40 Noroeste 0 -- -- 63
2019-04-09 17:00:00 16.2 19 Oeste 40 Noroeste 0 -- -- 55
2019-04-09 16:00:00 15.6 15 Oeste 36 Oeste 0.2 -- -- 56
2019-04-09 15:00:00 14.8 10 Oeste 22 Oeste 0.2 -- -- 66
2019-04-09 14:00:00 14.3 14 Noroeste 28 Noroeste 0 -- -- 68
2019-04-09 13:00:00 13.4 14 Oeste 30 Sudoeste 0 -- -- 71
2019-04-09 12:00:00 13.4 12 Oeste 27 Sudoeste 0 -- -- 68
2019-04-09 11:00:00 11.2 11 Oeste 22 Oeste 0 -- -- 85
2019-04-09 10:00:00 9.6 8 Oeste 17 Oeste 0 -- -- 96
2019-04-09 09:00:00 8.3 5 Noroeste 14 Noroeste 0 -- -- 96
2019-04-09 08:00:00 7.6 5 Sudoeste 11 Sudoeste 0 -- -- 95
2019-04-09 07:00:00 7.9 3 Oeste 6 Oeste 0 -- -- 94
2019-04-09 06:00:00 7.9 2 Noroeste 12 Oeste 0 -- -- 93
2019-04-09 05:00:00 8 4 Oeste 8 Oeste 0 -- -- 93
2019-04-09 04:00:00 7.9 4 Oeste 9 Oeste 0 -- -- 92
2019-04-09 03:00:00 7.8 3 Noroeste 10 Noroeste 0 -- -- 90
2019-04-09 02:00:00 8.3 3 Oeste 12 Noroeste 0 -- -- 87
2019-04-09 01:00:00 8.2 4 Noroeste 14 Noroeste 0 -- -- 85
2019-04-09 00:00:00 8.8 7 Noroeste 14 Oeste 0 -- -- 83
2019-04-08 23:00:00 10 5 Noroeste 13 Noroeste 0 -- -- 78
2019-04-08 22:00:00 11.1 8 Noroeste 32 Noroeste 0 -- -- 72
2019-04-08 21:00:00 12.2 8 Noroeste 28 Oeste 0 -- -- 65
2019-04-08 20:00:00 14.6 13 Noroeste 30 Oeste 0 -- -- 56
2019-04-08 19:00:00 14.4 14 Sudoeste 32 Sudoeste 0 -- -- 78
2019-04-08 18:00:00 15.7 15 Sudoeste 33 Oeste 0 -- -- 64
2019-04-08 17:00:00 15.6 12 Oeste 34 Oeste 0 -- -- 72
2019-04-08 16:00:00 15.2 15 Oeste 37 Sudoeste 0 -- -- 72
2019-04-08 15:00:00 15 13 Sudoeste 22 Oeste 0 -- -- 75
2019-04-08 14:00:00 14 9 Oeste 22 Oeste 0 -- -- 81
2019-04-08 13:00:00 13.9 6 Noroeste 15 Oeste 0 -- -- 90
2019-04-08 12:00:00 12.8 5 Noroeste 18 Sudoeste 0 -- -- 97
2019-04-08 11:00:00 12.1 12 Sudoeste 39 Sudoeste 1.4 -- -- 98
2019-04-08 10:00:00 11.9 17 Sudoeste 33 Sudoeste 0.4 -- -- 98
2019-04-08 09:00:00 11.4 13 Sudoeste 33 Sur 3.4 -- -- 98
2019-04-08 08:00:00 11.3 15 Sur 25 Sur 1 -- -- 98
2019-04-08 07:00:00 11.3 14 Sudoeste 25 Sudoeste 0.2 -- -- 98
2019-04-08 06:00:00 10.9 10 Sudoeste 14 Sudoeste 0.2 -- -- 97
2019-04-08 05:00:00 11.2 7 Sudoeste 21 Oeste 0 -- -- 98
2019-04-08 04:00:00 11.5 10 Sudoeste 21 Oeste 0.2 -- -- 97
2019-04-08 03:00:00 11.7 5 Sudoeste 17 Oeste 0 -- -- 97
2019-04-08 02:00:00 11.9 7 Sudoeste 16 Oeste 0.4 -- -- 97
2019-04-08 01:00:00 11.6 6 Oeste 15 Sudoeste 0 -- -- 96
2019-04-08 00:00:00 11.6 7 Sudoeste 15 Sur 0.4 -- -- 96
2019-04-07 23:00:00 11.8 10 Sudoeste 18 Sudoeste 0 -- -- 96
2019-04-07 22:00:00 12 7 Sudoeste 18 Oeste 0 -- -- 96
2019-04-07 21:00:00 12.4 8 Oeste 18 Oeste 0 -- -- 96
2019-04-07 20:00:00 12.7 6 Noroeste 28 Noroeste 0.2 -- -- 97
2019-04-07 19:00:00 12.6 0 Calma 9 Sur 3.6 -- -- 97
2019-04-07 18:00:00 12 4 Sur 13 Sudeste 0 -- -- 96
2019-04-07 17:00:00 11.9 7 Sur 19 Sur 0.2 -- -- 96
2019-04-07 16:00:00 11.2 12 Sur 23 Sudoeste 1.6 -- -- 95
2019-04-07 15:00:00 10.9 14 Sur 23 Sur 0.2 -- -- 91
2019-04-07 14:00:00 10.7 6 Sudoeste 23 Sudoeste 0.2 -- -- 88
2019-04-07 13:00:00 10.9 12 Sudoeste 26 Sudoeste 0 -- -- 86
2019-04-07 12:00:00 12 12 Sudoeste 28 Sudoeste 0 -- -- 77
2019-04-07 11:00:00 11.1 10 Sudoeste 18 Oeste 0 -- -- 81
2019-04-07 10:00:00 8.9 6 Oeste 15 Oeste 0 -- -- 95
2019-04-07 09:00:00 7.5 4 Oeste 10 Oeste 0 -- -- 96
2019-04-07 08:00:00 7.3 3 Noroeste 9 Oeste 0 -- -- 96
2019-04-07 07:00:00 7.2 3 Oeste 12 Noroeste 0 -- -- 96
2019-04-07 06:00:00 7.3 7 Noroeste 13 Noroeste 0 -- -- 95
2019-04-07 05:00:00 7.4 6 Oeste 17 Oeste 0.2 -- -- 94
2019-04-07 04:00:00 7.4 6 Sudoeste 16 Oeste 0 -- -- 93
2019-04-07 03:00:00 7.6 7 Oeste 22 Sudoeste 0 -- -- 90
2019-04-07 02:00:00 7.7 9 Oeste 22 Oeste 0 -- -- 90
2019-04-07 01:00:00 7.6 11 Oeste 21 Oeste 0 -- -- 87
2019-04-07 00:00:00 8 7 Oeste 23 Oeste 0 -- -- 82
2019-04-06 23:00:00 8.2 9 Oeste 19 Oeste 0 -- -- 79
2019-04-06 22:00:00 9 5 Oeste 32 Noroeste 0 -- -- 74
2019-04-06 21:00:00 10.2 16 Noroeste 39 Oeste 0 -- -- 64
2019-04-06 20:00:00 12 19 Oeste 41 Oeste 0 -- -- 60
2019-04-06 19:00:00 12.2 14 Oeste 32 Oeste 0.4 -- -- 75
2019-04-06 18:00:00 11 9 Oeste 26 Noroeste 0.2 -- -- 84
2019-04-06 17:00:00 11 15 Oeste 40 Oeste 1.8 -- -- 83
2019-04-06 16:00:00 10.3 11 Noroeste 35 Oeste 0.2 -- -- 81
2019-04-06 15:00:00 11.4 11 Oeste 25 Oeste 0.6 -- -- 81
2019-04-06 14:00:00 9.1 13 Noroeste 38 Norte 0.6 -- -- 88
2019-04-06 13:00:00 8.6 17 Oeste 33 Oeste 1.4 -- -- 84
2019-04-06 12:00:00 9.9 12 Oeste 28 Oeste 0 -- -- 81
2019-04-06 11:00:00 8.2 10 Oeste 23 Oeste 0.2 -- -- 92
2019-04-06 10:00:00 7.3 8 Oeste 19 Oeste 0 -- -- 97
2019-04-06 09:00:00 6.1 6 Oeste 16 Oeste 0.2 -- -- 97
2019-04-06 08:00:00 5.7 4 Oeste 15 Oeste 0 -- -- 97
2019-04-06 07:00:00 5.3 4 Oeste 9 Oeste 0 -- -- 97
2019-04-06 06:00:00 5.1 4 Oeste 9 Oeste 0 -- -- 96
2019-04-06 05:00:00 5 3 Noroeste 12 Oeste 0 -- -- 95
2019-04-06 04:00:00 5.2 3 Noroeste 13 Oeste 0 -- -- 95
2019-04-06 03:00:00 5.5 7 Oeste 16 Oeste 0 -- -- 95
2019-04-06 02:00:00 5.7 6 Oeste 14 Oeste 0 -- -- 94
2019-04-06 01:00:00 5.8 5 Oeste 17 Oeste 0 -- -- 93
2019-04-06 00:00:00 5.9 7 Oeste 12 Oeste 0.2 -- -- 93
2019-04-05 23:00:00 6.1 5 Oeste 18 Oeste 0 -- -- 92
2019-04-05 22:00:00 6.2 9 Noroeste 27 Noroeste 0 -- -- 87
2019-04-05 21:00:00 6.7 10 Noroeste 42 Noroeste 0.2 -- -- 82
2019-04-05 20:00:00 8.9 15 Noroeste 39 Oeste 0 -- -- 68
2019-04-05 19:00:00 10.6 11 Oeste 40 Sudoeste 0.2 -- -- 70
2019-04-05 18:00:00 11.3 18 Sudoeste 37 Oeste 0 -- -- 58
2019-04-05 17:00:00 10.8 17 Oeste 38 Oeste 0 -- -- 60
2019-04-05 16:00:00 12.5 14 Oeste 30 Oeste 0 -- -- 54
2019-04-05 15:00:00 11 17 Noroeste 35 Noroeste 0 -- -- 58
2019-04-05 14:00:00 9 13 Oeste 44 Noroeste 0.2 -- -- 73
2019-04-05 13:00:00 9.9 20 Noroeste 41 Norte 0 -- -- 69
2019-04-05 12:00:00 8.6 15 Noroeste 32 Noroeste 0 -- -- 80
2019-04-05 11:00:00 7.9 13 Noroeste 36 Oeste 0 -- -- 88
2019-04-05 10:00:00 7.8 17 Oeste 34 Sudoeste 0.6 -- -- 95
2019-04-05 09:00:00 7.5 5 Sudoeste 9 Sudoeste 0.2 -- -- 96
2019-04-05 08:00:00 7.7 5 Sudoeste 24 Oeste 0.6 -- -- 95
2019-04-05 07:00:00 8 11 Sudoeste 27 Sudoeste 0 -- -- 93
2019-04-05 06:00:00 7.8 15 Sudoeste 29 Sudoeste 1.2 -- -- 93
2019-04-05 05:00:00 8.3 19 Sudoeste 33 Sudoeste 2 -- -- 96
2019-04-05 04:00:00 7.6 13 Sur 22 Sur 0.6 -- -- 94
2019-04-05 03:00:00 7.4 11 Sudoeste 18 Sudoeste 0.2 -- -- 92
2019-04-05 02:00:00 7.6 6 Sudoeste 22 Oeste 0.4 -- -- 85
2019-04-05 01:00:00 8.6 6 Noroeste 19 Noroeste 0 -- -- 69
2019-04-05 00:00:00 8.7 9 Noroeste 20 Noroeste 0 -- -- 68
2019-04-04 23:00:00 9.2 10 Noroeste 26 Oeste 0 -- -- 64
2019-04-04 22:00:00 10.7 9 Oeste 32 Oeste 0 -- -- 53
2019-04-04 21:00:00 12.3 7 Noroeste 23 Oeste 0 -- -- 38
2019-04-04 20:00:00 15 9 Oeste 27 Oeste 0 -- -- 33
2019-04-04 19:00:00 16.1 12 Oeste 31 Oeste 0 -- -- 30
2019-04-04 18:00:00 17 13 Oeste 28 Sudoeste 0 -- -- 29
2019-04-04 17:00:00 17.6 12 Oeste 26 Oeste 0 -- -- 27
2019-04-04 16:00:00 17.3 10 Oeste 27 Oeste 0 -- -- 27
2019-04-04 15:00:00 15.9 6 Sudoeste 20 Noroeste 0 -- -- 29
2019-04-04 14:00:00 15.2 8 Noroeste 22 Norte 0 -- -- 32
2019-04-04 13:00:00 13.4 7 Noroeste 19 Norte 0 -- -- 35
2019-04-04 12:00:00 11.5 5 Noroeste 14 Norte 0 -- -- 43
2019-04-04 11:00:00 9.6 4 Oeste 10 Oeste 0 -- -- 51
2019-04-04 10:00:00 7.4 3 Noroeste 6 Noroeste 0 -- -- 65
2019-04-04 09:00:00 4.2 0 Calma 6 Noroeste 0 -- -- 77
2019-04-04 08:00:00 3.8 3 Noroeste 5 Noroeste 0 -- -- 79
2019-04-04 07:00:00 5.1 2 Oeste 18 Norte 0 -- -- 68
2019-04-04 06:00:00 6.9 18 Norte 33 Norte 0 -- -- 59
2019-04-04 05:00:00 7.3 24 Norte 34 Norte 0 -- -- 61
2019-04-04 04:00:00 7 17 Norte 26 Norte 0 -- -- 64
2019-04-04 03:00:00 6.1 7 Norte 12 Norte 0 -- -- 72
2019-04-04 02:00:00 7.2 4 Norte 22 Norte 0 -- -- 70
2019-04-04 01:00:00 8.9 19 Norte 24 Norte 0 -- -- 62
2019-04-04 00:00:00 9.9 16 Noroeste 28 Norte 0 -- -- 57
2019-04-03 23:00:00 10.5 13 Noroeste 18 Noroeste 0 -- -- 56
2019-04-03 22:00:00 11.7 12 Noroeste 25 Noroeste 0 -- -- 52
2019-04-03 21:00:00 13.1 14 Noroeste 26 Noroeste 0 -- -- 50
2019-04-03 20:00:00 15.1 20 Noroeste 35 Norte 0 -- -- 45
2019-04-03 19:00:00 16.3 21 Noroeste 37 Noroeste 0 -- -- 43
2019-04-03 18:00:00 17.4 18 Noroeste 31 Norte 0 -- -- 43
2019-04-03 17:00:00 17.9 18 Noroeste 30 Oeste 0 -- -- 41
2019-04-03 16:00:00 18 14 Noroeste 31 Oeste 0 -- -- 41
2019-04-03 15:00:00 17.5 14 Oeste 28 Noroeste 0 -- -- 45
2019-04-03 14:00:00 17.4 14 Noroeste 26 Noroeste 0 -- -- 47
2019-04-03 13:00:00 16.9 12 Oeste 22 Oeste 0 -- -- 44
2019-04-03 12:00:00 15.7 8 Oeste 21 Norte 0 -- -- 53
2019-04-03 11:00:00 14.1 14 Noroeste 23 Noroeste 0 -- -- 53
2019-04-03 10:00:00 12.1 9 Noroeste 14 Noroeste 0 -- -- 67
2019-04-03 09:00:00 8.8 4 Norte 8 Norte 0 -- -- 83
2019-04-03 08:00:00 8.7 4 Norte 8 Norte 0 -- -- 88
2019-04-03 07:00:00 9.1 6 Norte 9 Norte 0 -- -- 87
2019-04-03 06:00:00 9.6 4 Norte 8 Norte 0 -- -- 86
2019-04-03 05:00:00 9.8 5 Noroeste 7 Norte 0 -- -- 85
2019-04-03 04:00:00 10.5 5 Norte 13 Norte 0 -- -- 80
2019-04-03 03:00:00 10.6 9 Norte 12 Norte 0 -- -- 80
2019-04-03 02:00:00 10.5 10 Norte 13 Norte 0 -- -- 80
2019-04-03 01:00:00 11.3 4 Norte 6 Norte 0 -- -- 80
2019-04-03 00:00:00 12.3 4 Noroeste 8 Norte 0 -- -- 78
2019-04-02 23:00:00 13.8 3 Noroeste 8 Oeste 0 -- -- 78
2019-04-02 22:00:00 14.7 4 Oeste 15 Sur 0 -- -- 74
2019-04-02 21:00:00 16.8 7 Sudoeste 18 Sudoeste 0 -- -- 59
2019-04-02 20:00:00 19 7 Oeste 18 Oeste 0 -- -- 50
2019-04-02 19:00:00 18.7 3 Noroeste 11 Noroeste 0 -- -- 53
2019-04-02 18:00:00 18.4 6 Sur 19 Sudoeste 0 -- -- 54
2019-04-02 17:00:00 19.4 8 Sur 14 Sudoeste 0 -- -- 51
2019-04-02 16:00:00 19.4 7 Sudoeste 15 Sudoeste 0 -- -- 55
2019-04-02 15:00:00 18.8 9 Sudoeste 19 Sudoeste 0 -- -- 60
2019-04-02 14:00:00 17.3 4 Nordeste 14 Este 0 -- -- 64
2019-04-02 13:00:00 15.7 6 Sudeste 12 Sur 0 -- -- 71
2019-04-02 12:00:00 14.1 4 Este 12 Este 0 -- -- 82
2019-04-02 11:00:00 11.4 6 Sudeste 12 Sudeste 0 -- -- 93
2019-04-02 10:00:00 11.4 3 Sur 14 Este 0 -- -- 97
2019-04-02 09:00:00 8.8 0 Calma 8 Sudeste 0 -- -- 96
2019-04-02 08:00:00 8.7 0 Calma 9 Nordeste 0 -- -- 96
2019-04-02 07:00:00 8.8 6 Nordeste 8 Nordeste 0 -- -- 97
2019-04-02 06:00:00 9.3 3 Sudeste 4 Sudeste 0 -- -- 96
2019-04-02 05:00:00 9.3 0 Calma 4 Nordeste 0.2 -- -- 96
2019-04-02 04:00:00 10.1 2 Nordeste 4 Nordeste 0 -- -- 96
2019-04-02 03:00:00 9.5 3 Nordeste 4 Nordeste 0 -- -- 96
2019-04-02 02:00:00 9.2 0 Calma 6 Sudoeste 0 -- -- 94
2019-04-02 01:00:00 9.5 5 Sur 8 Sur 0 -- -- 93
2019-04-02 00:00:00 10 0 Calma 4 Sudoeste 0 -- -- 92
2019-04-01 23:00:00 10.6 0 Calma 5 Noroeste 0 -- -- 91
2019-04-01 22:00:00 10.9 2 Nordeste 16 Norte 0.4 -- -- 92
2019-04-01 21:00:00 11.5 10 Noroeste 24 Sudoeste 3.4 -- -- 89
2019-04-01 20:00:00 13.4 5 Sur 23 Sudoeste 0.8 -- -- 88
2019-04-01 19:00:00 15.2 10 Sur 21 Sur 0 -- -- 71
2019-04-01 18:00:00 15.5 17 Sur 27 Sudoeste 0 -- -- 64
2019-04-01 17:00:00 14.3 10 Sur 24 Sur 7.4 -- -- 84
2019-04-01 16:00:00 15.2 17 Sur 33 Sur 0 -- -- 71
2019-04-01 15:00:00 16.5 8 Noroeste 38 Sudoeste 0 -- -- 64
2019-04-01 14:00:00 16.5 8 Sudoeste 18 Sur 0 -- -- 57
2019-04-01 13:00:00 16.7 5 Sudeste 14 Sur 0 -- -- 64
2019-04-01 12:00:00 14.7 5 Sur 14 Sudeste 0 -- -- 79
2019-04-01 11:00:00 13 5 Sudeste 13 Este 0 -- -- 93
2019-04-01 10:00:00 11.1 5 Este 10 Este 0 -- -- 98
2019-04-01 09:00:00 10.3 3 Este 13 Este 0 -- -- 97
2019-04-01 08:00:00 10.4 8 Este 13 Este 0 -- -- 96
2019-04-01 07:00:00 11 3 Este 9 Sur 0 -- -- 96
2019-04-01 06:00:00 10.8 5 Sudeste 13 Este 0 -- -- 95
2019-04-01 05:00:00 10.7 5 Sudeste 13 Sur 0 -- -- 95
2019-04-01 04:00:00 10.6 6 Este 13 Este 0 -- -- 95
2019-04-01 03:00:00 10.3 5 Sudeste 14 Este 0 -- -- 93
2019-04-01 02:00:00 11.7 9 Este 12 Este 0 -- -- 88
2019-04-01 01:00:00 11.6 8 Este 10 Nordeste 0 -- -- 87
2019-04-01 00:00:00 10.9 4 Nordeste 6 Norte 0 -- -- 91
2019-03-31 23:00:00 11.4 4 Norte 8 Norte 0 -- -- 89
2019-03-31 22:00:00 12.2 3 Norte 9 Noroeste 0 -- -- 87
2019-03-31 21:00:00 12.9 3 Noroeste 10 Sudoeste 0 -- -- 85
2019-03-31 20:00:00 14 0 Calma 6 Sudeste 0 -- -- 82
2019-03-31 19:00:00 14.4 5 Sudeste 13 Sur 0 -- -- 80
2019-03-31 18:00:00 13.8 6 Sudeste 17 Sur 0.4 -- -- 85
2019-03-31 17:00:00 14.6 10 Sur 15 Sur 0 -- -- 80
2019-03-31 16:00:00 12.8 3 Nordeste 19 Nordeste 0.4 -- -- 96
2019-03-31 15:00:00 10.5 15 Nordeste 41 Norte 22.2 -- -- 94
2019-03-31 14:00:00 17.7 5 Noroeste 12 Noroeste 0 -- -- 63
2019-03-31 13:00:00 16.4 4 Oeste 15 Norte 0 -- -- 66
2019-03-31 12:00:00 17.3 10 Noroeste 21 Norte 0 -- -- 64
2019-03-31 11:00:00 15.1 9 Norte 15 Norte 0 -- -- 74
2019-03-31 10:00:00 13 6 Norte 10 Nordeste 0 -- -- 87
2019-03-31 09:00:00 10.7 8 Nordeste 10 Nordeste 0 -- -- 92
2019-03-31 08:00:00 10.2 6 Norte 9 Norte 0 -- -- 92
2019-03-31 07:00:00 10.1 4 Norte 6 Norte 0 -- -- 91
2019-03-31 06:00:00 11 3 Nordeste 8 Este 0 -- -- 91
2019-03-31 05:00:00 10.8 2 Norte 5 Norte 0 -- -- 92
2019-03-31 03:00:00 10.9 0 Calma 5 Sudeste 0 -- -- 89
2019-03-31 01:00:00 11.3 3 Norte 15 Noroeste 0 -- -- 88
2019-03-31 00:00:00 12.1 6 Noroeste 13 Norte 0 -- -- 86
2019-03-30 23:00:00 12.1 4 Noroeste 9 Norte 0 -- -- 84
2019-03-30 22:00:00 12.3 4 Norte 8 Norte 0 -- -- 82
2019-03-30 21:00:00 13.4 3 Oeste 25 Sudoeste 0 -- -- 77
2019-03-30 20:00:00 14.7 15 Sudoeste 35 Sudoeste 0 -- -- 68
2019-03-30 19:00:00 19.2 13 Sur 27 Sudoeste 0 -- -- 49
2019-03-30 18:00:00 20 8 Sudeste 18 Este 0 -- -- 41
2019-03-30 17:00:00 21.4 7 Este 18 Este 0 -- -- 39
2019-03-30 16:00:00 21.4 8 Nordeste 18 Este 0 -- -- 38
2019-03-30 15:00:00 21.6 6 Este 21 Este 0 -- -- 38
2019-03-30 14:00:00 20.6 10 Nordeste 21 Este 0 -- -- 42
2019-03-30 13:00:00 19.5 8 Nordeste 18 Este 0 -- -- 44
2019-03-30 12:00:00 17.9 9 Este 20 Este 0 -- -- 50
2019-03-30 11:00:00 15.7 12 Este 23 Sudeste 0 -- -- 57
2019-03-30 10:00:00 13.5 12 Este 28 Este 0 -- -- 65
2019-03-30 09:00:00 11.3 15 Este 29 Nordeste 0 -- -- 74
2019-03-30 08:00:00 9.6 15 Nordeste 28 Este 0 -- -- 80
2019-03-30 07:00:00 9.3 14 Este 25 Este 0 -- -- 81
2019-03-30 06:00:00 9.3 12 Este 23 Este 0 -- -- 79
2019-03-30 05:00:00 8.7 8 Nordeste 14 Este 0 -- -- 80
2019-03-30 04:00:00 9.5 8 Este 16 Este 0 -- -- 75
2019-03-30 03:00:00 10.2 9 Este 15 Este 0 -- -- 72
2019-03-30 02:00:00 11 2 Sudeste 15 Sudeste 0 -- -- 76
2019-03-30 01:00:00 12.2 9 Este 13 Este 0 -- -- 77
2019-03-30 00:00:00 11.8 7 Norte 10 Norte 0 -- -- 77
2019-03-29 23:00:00 11.9 3 Noroeste 7 Sudoeste 0 -- -- 76
2019-03-29 22:00:00 12.5 4 Sur 10 Sur 0 -- -- 73
2019-03-29 21:00:00 13.9 3 Sudoeste 13 Sur 0 -- -- 64
2019-03-29 20:00:00 16.6 6 Sur 17 Sur 0 -- -- 53
2019-03-29 19:00:00 19.5 5 Sudeste 16 Sudeste 0 -- -- 37
2019-03-29 18:00:00 20.1 8 Sudeste 23 Sur 0 -- -- 34
2019-03-29 17:00:00 19.9 9 Sur 19 Sur 0 -- -- 33
2019-03-29 16:00:00 20.9 8 Sudeste 30 Sur 0 -- -- 30
2019-03-29 15:00:00 20.3 10 Sur 20 Este 0 -- -- 31
2019-03-29 14:00:00 19.5 5 Sudeste 23 Sur 0 -- -- 32
2019-03-29 13:00:00 18.8 8 Sudeste 21 Sur 0 -- -- 32
2019-03-29 12:00:00 17.4 8 Sudeste 22 Sudeste 0 -- -- 34
2019-03-29 11:00:00 15.3 12 Este 26 Sudeste 0 -- -- 41
2019-03-29 10:00:00 13.4 12 Este 26 Nordeste 0 -- -- 45
2019-03-29 09:00:00 11.2 11 Este 22 Este 0 -- -- 51
2019-03-29 08:00:00 8.6 8 Este 19 Este 0 -- -- 59
2019-03-29 07:00:00 7.8 6 Este 14 Este 0 -- -- 62
2019-03-29 06:00:00 8.1 7 Este 24 Este 0 -- -- 62
2019-03-29 05:00:00 9.2 9 Este 24 Este 0 -- -- 59
2019-03-29 04:00:00 9.5 10 Este 27 Nordeste 0 -- -- 58
2019-03-29 03:00:00 9.4 10 Este 28 Este 0 -- -- 58
2019-03-29 02:00:00 9.2 11 Nordeste 23 Este 0 -- -- 53
2019-03-29 01:00:00 9.5 12 Nordeste 21 Este 0 -- -- 44
2019-03-29 00:00:00 10.5 10 Este 15 Este 0 -- -- 38
2019-03-28 23:00:00 11.8 6 Este 12 Este 0 -- -- 34
2019-03-28 22:00:00 12.4 8 Este 14 Este 0 -- -- 32
2019-03-28 21:00:00 13.5 6 Este 14 Este 0 -- -- 30
2019-03-28 20:00:00 14.9 6 Sudeste 17 Este 0 -- -- 28
2019-03-28 19:00:00 17.5 9 Este 30 Este 0 -- -- 23
2019-03-28 18:00:00 18.8 13 Sudeste 30 Sudeste 0 -- -- 23
2019-03-28 17:00:00 19.4 14 Sudeste 35 Nordeste 0 -- -- 26
2019-03-28 16:00:00 19.6 12 Este 35 Este 0 -- -- 29
2019-03-28 15:00:00 18.9 14 Sudeste 35 Este 0 -- -- 30
2019-03-28 14:00:00 18 14 Este 38 Nordeste 0 -- -- 35
2019-03-28 13:00:00 16.9 15 Este 34 Este 0 -- -- 37
2019-03-28 12:00:00 15.8 13 Este 33 Este 0 -- -- 42
2019-03-28 11:00:00 14.4 13 Este 37 Este 0 -- -- 52
2019-03-28 10:00:00 12.8 15 Este 35 Este 0 -- -- 58
2019-03-28 09:00:00 10.9 12 Este 29 Este 0 -- -- 68
2019-03-28 08:00:00 8.8 12 Este 26 Este 0 -- -- 74
2019-03-28 07:00:00 8.4 10 Este 25 Este 0 -- -- 75
2019-03-28 06:00:00 9 11 Este 22 Este 0 -- -- 72
2019-03-28 05:00:00 9 10 Nordeste 19 Nordeste 0 -- -- 63
2019-03-28 04:00:00 9.3 10 Nordeste 17 Este 0 -- -- 60
2019-03-28 03:00:00 8.8 10 Nordeste 13 Nordeste 0 -- -- 63
2019-03-28 02:00:00 8.9 6 Nordeste 9 Nordeste 0 -- -- 64
2019-03-28 01:00:00 8.5 3 Sudeste 9 Sur 0 -- -- 66
2019-03-28 00:00:00 9.6 5 Sur 12 Sudeste 0 -- -- 60
2019-03-27 23:00:00 9.6 5 Sudeste 12 Sur 0 -- -- 60
2019-03-27 22:00:00 10.7 2 Sur 12 Sur 0 -- -- 56
2019-03-27 21:00:00 12.6 6 Sudoeste 21 Sudoeste 0 -- -- 47
2019-03-27 20:00:00 16 5 Sudeste 14 Sudeste 0 -- -- 27
2019-03-27 19:00:00 18.8 7 Sudeste 20 Sudeste 0 -- -- 24
2019-03-27 18:00:00 19.7 9 Sur 24 Este 0 -- -- 23
2019-03-27 17:00:00 20.1 9 Sudeste 25 Sur 0 -- -- 24
2019-03-27 16:00:00 20.1 9 Sudeste 33 Sudeste 0 -- -- 24
2019-03-27 15:00:00 19.5 8 Sudeste 30 Sudeste 0 -- -- 27
2019-03-27 14:00:00 19.1 12 Este 27 Este 0 -- -- 29
2019-03-27 13:00:00 17.8 11 Este 31 Sudeste 0 -- -- 41
2019-03-27 12:00:00 16.7 10 Este 28 Este 0 -- -- 50
2019-03-27 11:00:00 15.4 10 Este 32 Este 0 -- -- 52
2019-03-27 10:00:00 13.7 14 Este 31 Este 0 -- -- 51
2019-03-27 09:00:00 11.7 14 Este 35 Sudeste 0 -- -- 57
2019-03-27 08:00:00 9.9 11 Este 30 Este 0 -- -- 71
2019-03-27 07:00:00 9.8 13 Nordeste 22 Este 0 -- -- 74
2019-03-27 06:00:00 9.8 11 Nordeste 19 Este 0 -- -- 79
2019-03-27 05:00:00 10.4 6 Nordeste 19 Este 0 -- -- 78
2019-03-27 04:00:00 10.9 9 Este 17 Nordeste 0 -- -- 73
2019-03-27 03:00:00 11.4 8 Nordeste 10 Nordeste 0 -- -- 68
2019-03-27 02:00:00 11.8 4 Este 10 Sudeste 0 -- -- 68
2019-03-27 01:00:00 12.2 5 Sudeste 9 Sudeste 0 -- -- 63
2019-03-27 00:00:00 13.1 5 Sur 12 Sudeste 0 -- -- 57
2019-03-26 23:00:00 13.8 7 Sur 12 Sur 0 -- -- 55
2019-03-26 22:00:00 14.2 8 Sur 13 Sur 0 -- -- 61
2019-03-26 21:00:00 15.3 5 Norte 9 Norte 0 -- -- 57
2019-03-26 20:00:00 16.2 4 Norte 9 Oeste 0 -- -- 54
2019-03-26 19:00:00 18 7 Sudoeste 23 Sudoeste 0 -- -- 49
2019-03-26 18:00:00 20.4 17 Sudoeste 32 Sudeste 0 -- -- 45
2019-03-26 17:00:00 23.7 13 Este 29 Este 0 -- -- 32
2019-03-26 16:00:00 23.8 12 Este 34 Este 0 -- -- 32
2019-03-26 15:00:00 23 14 Este 33 Sudeste 0 -- -- 34
2019-03-26 14:00:00 23 12 Sudeste 30 Sudeste 0 -- -- 32
2019-03-26 13:00:00 20.7 13 Este 35 Nordeste 0 -- -- 33
2019-03-26 12:00:00 20.6 14 Este 33 Este 0 -- -- 31
2019-03-26 11:00:00 19.3 13 Este 32 Este 0 -- -- 35
2019-03-26 10:00:00 17.6 14 Este 31 Este 0 -- -- 41
2019-03-26 09:00:00 15.3 12 Este 28 Este 0 -- -- 48
2019-03-26 08:00:00 12.8 5 Este 18 Este 0 -- -- 61
2019-03-26 07:00:00 12.9 6 Nordeste 17 Este 0 -- -- 61
2019-03-26 06:00:00 13.7 9 Este 21 Este 0 -- -- 58
2019-03-26 05:00:00 14 8 Este 26 Este 0 -- -- 56
2019-03-26 04:00:00 13.8 12 Este 25 Este 0 -- -- 56
2019-03-26 03:00:00 13.2 15 Nordeste 24 Nordeste 0 -- -- 58
2019-03-26 02:00:00 13 11 Nordeste 19 Nordeste 0 -- -- 59
2019-03-26 01:00:00 13.2 10 Nordeste 17 Este 0 -- -- 58
2019-03-26 00:00:00 14.8 9 Este 15 Este 0 -- -- 51
2019-03-25 23:00:00 15.6 8 Este 13 Este 0 -- -- 47
2019-03-25 22:00:00 15.9 9 Este 11 Este 0 -- -- 43
2019-03-25 21:00:00 17.1 6 Este 11 Este 0 -- -- 41
2019-03-25 20:00:00 18.3 6 Este 20 Sudeste 0 -- -- 38
2019-03-25 19:00:00 20.8 7 Sudeste 23 Sudeste 0 -- -- 35
2019-03-25 18:00:00 21.9 9 Este 31 Este 0 -- -- 33
2019-03-25 17:00:00 22.5 14 Este 31 Nordeste 0 -- -- 31
2019-03-25 16:00:00 22.6 13 Este 35 Este 0 -- -- 32
2019-03-25 15:00:00 21.9 13 Este 37 Este 0 -- -- 31
2019-03-25 14:00:00 21.3 18 Este 33 Nordeste 0 -- -- 32
2019-03-25 13:00:00 20.5 16 Este 32 Nordeste 0 -- -- 33
2019-03-25 12:00:00 19.7 12 Este 27 Este 0 -- -- 37
2019-03-25 11:00:00 17.8 14 Nordeste 27 Este 0 -- -- 42
2019-03-25 10:00:00 16.2 10 Este 21 Nordeste 0 -- -- 50
2019-03-25 09:00:00 13.6 5 Este 14 Nordeste 0 -- -- 58
2019-03-25 08:00:00 10.8 5 Nordeste 10 Nordeste 0 -- -- 68
2019-03-25 07:00:00 11.3 7 Nordeste 12 Norte 0 -- -- 66
2019-03-25 06:00:00 11.1 5 Nordeste 13 Nordeste 0 -- -- 65
2019-03-25 05:00:00 11.9 9 Nordeste 13 Este 0 -- -- 62
2019-03-25 04:00:00 12 9 Este 14 Este 0 -- -- 61
2019-03-25 03:00:00 12.4 9 Este 14 Nordeste 0 -- -- 59
2019-03-25 02:00:00 12.4 10 Este 11 Nordeste 0 -- -- 60
2019-03-25 01:00:00 12.7 7 Este 10 Este 0 -- -- 60
2019-03-25 00:00:00 12.8 8 Este 13 Este 0 -- -- 61